createdAt,value
2022-12-20T06:55:14.565Z,100.00
2022-12-20T06:57:41.779Z,100.00
2022-12-20T07:00:12.706Z,100.00
2022-12-20T07:02:40.009Z,100.00
2022-12-20T07:05:08.764Z,100.00
2022-12-20T07:07:44.779Z,100.00
2022-12-20T07:10:12.929Z,100.00
2022-12-20T07:15:29.192Z,100.00
2022-12-20T07:17:56.461Z,100.00
2022-12-20T07:20:23.567Z,100.00
2022-12-20T07:22:50.703Z,100.00
2022-12-20T07:25:17.960Z,100.00
2022-12-20T07:27:51.552Z,100.00
2022-12-20T07:30:19.562Z,100.00
2022-12-20T07:32:47.468Z,100.00
2022-12-20T07:35:15.309Z,100.00
2022-12-20T07:37:43.324Z,100.00
2022-12-20T07:40:12.081Z,100.00
2022-12-20T07:42:44.599Z,100.00
2022-12-20T07:45:15.666Z,100.00
2022-12-20T07:47:43.715Z,100.00
2022-12-20T07:50:11.855Z,100.00
2022-12-20T07:52:40.408Z,100.00
2022-12-20T07:55:08.788Z,100.00
2022-12-20T07:57:56.179Z,100.00
2022-12-20T08:00:25.013Z,100.00
2022-12-20T08:02:57.024Z,100.00
2022-12-20T08:05:26.273Z,100.00
2022-12-20T08:07:59.307Z,100.00
2022-12-20T08:10:27.839Z,100.00
2022-12-20T08:12:56.082Z,100.00
2022-12-20T08:15:23.699Z,100.00
2022-12-20T08:17:51.382Z,100.00
2022-12-20T08:20:18.968Z,100.00
2022-12-20T08:22:49.447Z,100.00
2022-12-20T08:25:17.064Z,100.00
2022-12-20T08:27:44.924Z,100.00
2022-12-20T08:30:12.784Z,100.00
2022-12-20T08:32:40.150Z,100.00
2022-12-20T08:35:08.370Z,100.00
2022-12-20T08:37:35.890Z,100.00
2022-12-20T08:40:03.616Z,100.00
2022-12-20T08:42:34.024Z,100.00
2022-12-20T08:45:01.457Z,100.00
2022-12-20T08:47:30.107Z,100.00
2022-12-20T08:49:57.670Z,100.00
2022-12-20T08:52:25.121Z,100.00
2022-12-20T08:54:52.883Z,100.00
2022-12-20T08:57:20.234Z,100.00
2022-12-20T08:59:47.655Z,100.00
2022-12-20T09:02:15.297Z,100.00
2022-12-20T09:04:44.479Z,100.00
2022-12-20T09:07:12.479Z,100.00
2022-12-20T09:09:39.879Z,100.00
2022-12-20T09:12:07.858Z,100.00
2022-12-20T09:14:35.202Z,100.00
2022-12-20T09:17:02.505Z,100.00
2022-12-20T09:19:31.132Z,100.00
2022-12-20T09:21:58.616Z,100.00
2022-12-20T09:24:26.119Z,100.00
2022-12-20T09:26:53.625Z,100.00
2022-12-20T09:29:26.966Z,100.00
2022-12-20T09:31:55.984Z,100.00
2022-12-20T09:34:23.365Z,100.00
2022-12-20T09:36:50.698Z,100.00
2022-12-20T09:39:19.346Z,100.00
2022-12-20T09:41:47.024Z,100.00
2022-12-20T09:44:19.711Z,100.00
2022-12-20T09:47:09.809Z,100.00
2022-12-20T09:49:43.362Z,100.00
2022-12-20T09:52:40.900Z,100.00
2022-12-20T09:55:11.175Z,100.00
2022-12-20T09:58:02.336Z,100.00
2022-12-20T10:00:30.712Z,100.00
2022-12-20T10:03:08.958Z,100.00
2022-12-20T10:05:55.404Z,100.00
2022-12-20T10:08:46.490Z,100.00
2022-12-20T10:11:50.185Z,100.00
2022-12-20T10:14:34.556Z,100.00
2022-12-20T10:17:11.043Z,100.00
2022-12-20T10:20:00.775Z,100.00
2022-12-20T10:22:46.887Z,100.00
2022-12-20T10:25:23.241Z,100.00
2022-12-20T10:27:54.399Z,100.00
2022-12-20T10:30:24.774Z,100.00
2022-12-20T10:32:55.252Z,100.00
2022-12-20T10:35:34.099Z,100.00
2022-12-20T10:38:12.521Z,100.00
2022-12-20T10:43:40.745Z,100.00
2022-12-20T10:46:09.039Z,100.00
2022-12-20T10:48:39.802Z,100.00
2022-12-20T10:51:15.518Z,100.00
2022-12-20T10:53:51.720Z,100.00
2022-12-20T10:56:19.886Z,100.00
2022-12-20T10:59:17.759Z,100.00
2022-12-20T11:01:47.132Z,100.00
2022-12-20T11:04:30.129Z,100.00
2022-12-20T11:07:00.048Z,100.00
2022-12-20T11:09:31.023Z,100.00
2022-12-20T11:12:12.154Z,100.00
2022-12-20T11:14:40.669Z,100.00
2022-12-20T11:17:20.273Z,100.00
2022-12-20T11:20:16.418Z,100.00
2022-12-20T11:22:57.694Z,100.00
2022-12-20T11:25:44.036Z,100.00
2022-12-20T11:28:21.865Z,100.00
2022-12-20T11:31:06.494Z,100.00
2022-12-20T11:33:56.048Z,100.00
2022-12-20T11:37:00.512Z,100.00
2022-12-20T11:39:46.301Z,99.54
2022-12-20T11:42:25.878Z,99.78
2022-12-20T11:45:28.637Z,100.00
2022-12-20T11:48:15.825Z,99.00
2022-12-20T11:51:03.821Z,98.95
2022-12-20T11:53:53.328Z,99.04
2022-12-20T11:56:43.960Z,98.66
2022-12-20T11:59:45.780Z,99.01
2022-12-20T12:02:23.922Z,97.69
2022-12-20T12:04:59.944Z,97.83
2022-12-20T12:07:31.164Z,98.13
2022-12-20T12:10:00.027Z,97.73
2022-12-20T12:13:05.740Z,98.14
2022-12-20T12:15:54.283Z,98.12
2022-12-20T12:18:24.756Z,97.17
2022-12-20T12:21:03.503Z,97.40
2022-12-20T12:23:51.324Z,97.95
2022-12-20T12:26:27.709Z,97.70
2022-12-20T12:29:01.131Z,96.28
2022-12-20T12:32:02.638Z,96.00
2022-12-20T12:34:58.413Z,96.24
2022-12-20T12:37:28.835Z,95.95
2022-12-20T12:40:28.347Z,96.39
2022-12-20T12:43:06.150Z,96.18
2022-12-20T12:45:43.914Z,96.27
2022-12-20T12:48:27.821Z,96.30
2022-12-20T12:50:57.452Z,96.28
2022-12-20T12:53:43.252Z,96.33
2022-12-20T12:56:43.268Z,95.96
2022-12-20T12:59:20.216Z,96.14
2022-12-20T13:01:56.025Z,95.80
2022-12-20T13:04:26.871Z,95.90
2022-12-20T13:07:00.605Z,95.93
2022-12-20T13:09:28.403Z,95.31
2022-12-20T13:12:01.320Z,95.10
2022-12-20T13:14:29.612Z,94.64
2022-12-20T13:17:14.660Z,93.65
2022-12-20T13:19:52.442Z,93.82
2022-12-20T13:22:26.842Z,92.97
2022-12-20T13:25:04.141Z,93.57
2022-12-20T13:27:41.982Z,93.69
2022-12-20T13:30:12.215Z,93.40
2022-12-20T13:32:48.892Z,91.87
2022-12-20T13:35:25.840Z,92.76
2022-12-20T13:38:06.093Z,92.39
2022-12-20T13:40:56.473Z,92.54
2022-12-20T13:43:23.710Z,91.82
2022-12-20T13:45:58.066Z,92.54
2022-12-20T13:48:41.777Z,92.35
2022-12-20T13:51:10.820Z,91.66
2022-12-20T13:53:38.814Z,91.14
2022-12-20T13:56:27.908Z,91.91
2022-12-20T13:58:57.511Z,91.36
2022-12-20T14:01:25.573Z,90.98
2022-12-20T14:03:53.612Z,90.98
2022-12-20T14:06:26.589Z,90.36
2022-12-20T14:08:54.828Z,90.69
2022-12-20T14:11:27.135Z,90.98
2022-12-20T14:13:59.949Z,90.40
2022-12-20T15:09:14.110Z,87.65
2022-12-20T16:07:16.874Z,88.12
2022-12-20T16:18:42.107Z,87.73
2022-12-20T17:47:04.208Z,88.27
2022-12-20T19:05:55.125Z,87.97
2022-12-20T19:08:23.105Z,88.44
